createdAt,value
2023-01-17T00:00:37.595Z,90918.10
2023-01-17T00:06:02.275Z,90910.97
2023-01-17T00:11:09.505Z,90914.12
2023-01-17T00:16:16.408Z,90915.48
2023-01-17T00:21:41.536Z,90912.20
2023-01-17T00:27:05.973Z,90902.55
2023-01-17T00:32:11.863Z,90914.94
2023-01-17T00:37:18.213Z,90920.31
2023-01-17T00:42:24.453Z,90927.20
2023-01-17T00:47:48.772Z,90930.05
2023-01-17T00:53:12.276Z,90948.48
2023-01-17T00:58:36.492Z,90958.53
2023-01-17T01:04:01.286Z,90956.97
2023-01-17T01:09:26.195Z,90956.42
2023-01-17T01:14:51.289Z,90946.91
2023-01-17T01:20:15.320Z,90954.64
2023-01-17T01:25:39.932Z,90955.91
2023-01-17T01:31:04.635Z,90957.80
2023-01-17T01:36:12.199Z,90965.59
2023-01-17T01:41:19.296Z,90971.84
2023-01-17T01:46:30.479Z,90988.89
2023-01-17T01:51:47.784Z,90986.97
2023-01-17T01:56:58.001Z,90997.16
2023-01-17T02:02:05.000Z,91005.34
2023-01-17T02:07:19.397Z,91008.41
2023-01-17T02:12:27.068Z,91012.80
2023-01-17T02:18:14.395Z,91006.44
2023-01-17T02:23:42.151Z,91006.27
2023-01-17T02:29:36.445Z,91002.44
2023-01-17T02:34:55.924Z,91017.53
2023-01-17T02:40:21.673Z,91010.23
2023-01-17T02:45:28.674Z,90999.23
2023-01-17T02:50:48.525Z,91003.92
2023-01-17T02:56:02.463Z,91000.05
2023-01-17T03:01:35.152Z,91002.41
2023-01-17T03:06:51.924Z,91004.34
2023-01-17T03:11:59.920Z,91007.53
2023-01-17T03:17:07.163Z,91016.80
2023-01-17T03:22:13.791Z,91022.52
2023-01-17T03:27:20.508Z,91021.25
2023-01-17T03:32:27.187Z,91019.41
2023-01-17T03:37:34.097Z,91019.53
2023-01-17T03:42:40.811Z,90864.33
2023-01-17T03:47:47.502Z,91021.02
2023-01-17T03:52:54.254Z,91013.21
2023-01-17T03:58:00.933Z,91017.48
2023-01-17T04:03:07.804Z,91011.55
2023-01-17T04:08:14.500Z,91009.66
2023-01-17T04:13:21.381Z,91011.81
2023-01-17T04:18:28.394Z,91015.48
2023-01-17T04:23:35.463Z,91007.27
2023-01-17T04:28:42.167Z,91012.92
2023-01-17T04:33:48.869Z,91010.25
2023-01-17T04:38:55.560Z,91014.05
2023-01-17T04:44:02.350Z,91004.62
2023-01-17T04:49:09.122Z,91004.15
2023-01-17T04:54:16.715Z,91005.49
2023-01-17T04:59:23.369Z,91008.04
2023-01-17T05:04:30.078Z,90861.85
2023-01-17T05:09:37.680Z,91025.20
2023-01-17T05:14:44.452Z,91023.10
2023-01-17T05:19:53.074Z,91036.86
2023-01-17T05:24:59.758Z,91040.75
2023-01-17T05:30:07.355Z,91051.94
2023-01-17T05:35:14.108Z,91046.86
2023-01-17T05:40:24.967Z,91070.44
2023-01-17T05:45:33.569Z,91075.91
2023-01-17T05:50:40.857Z,91090.30
2023-01-17T05:55:48.108Z,91094.03
2023-01-17T06:00:57.112Z,91094.95
2023-01-17T06:06:03.924Z,91104.55
2023-01-17T06:11:10.811Z,91118.34
2023-01-17T06:16:17.822Z,91123.06
2023-01-17T06:21:24.486Z,91123.38
2023-01-17T06:26:31.162Z,91124.58
2023-01-17T06:31:37.956Z,91123.48
2023-01-17T06:36:44.667Z,91128.34
2023-01-17T06:41:51.323Z,91137.41
2023-01-17T06:46:58.078Z,91153.54
2023-01-17T06:52:05.178Z,91168.73
2023-01-17T06:57:11.869Z,91173.73
2023-01-17T07:02:18.537Z,91170.68
2023-01-17T07:07:25.201Z,91168.33
2023-01-17T07:12:31.879Z,91166.48
2023-01-17T07:17:38.663Z,91174.01
2023-01-17T07:22:48.064Z,91195.88
2023-01-17T07:27:58.120Z,91196.27
2023-01-17T07:33:05.118Z,91209.53
2023-01-17T07:38:15.733Z,91217.85
2023-01-17T07:43:22.445Z,91205.09
2023-01-17T07:48:29.403Z,91205.41
2023-01-17T07:53:36.311Z,91205.41
2023-01-17T07:58:43.147Z,91206.95
2023-01-17T08:03:54.468Z,91210.05
2023-01-17T08:09:01.131Z,91217.13
2023-01-17T08:14:07.786Z,91219.73
2023-01-17T08:19:15.751Z,91222.58
2023-01-17T08:24:22.424Z,91219.35
2023-01-17T08:29:29.626Z,91218.13
2023-01-17T08:34:36.626Z,91212.14
2023-01-17T08:39:43.500Z,91053.89
2023-01-17T08:44:50.680Z,91213.05
2023-01-17T08:49:58.983Z,91222.70
2023-01-17T08:55:06.752Z,91217.30
2023-01-17T09:00:14.254Z,91216.03
2023-01-17T09:05:20.962Z,91222.91
2023-01-17T09:10:27.655Z,91231.96
2023-01-17T09:15:34.396Z,91226.08
2023-01-17T09:20:41.002Z,91230.30
2023-01-17T09:25:56.608Z,91224.85
2023-01-17T09:31:07.560Z,91226.41
2023-01-17T09:36:14.260Z,91208.50
2023-01-17T09:41:30.323Z,91196.50
2023-01-17T09:46:44.128Z,91204.59
2023-01-17T09:51:49.662Z,91179.03
2023-01-17T09:57:44.092Z,91188.83
2023-01-17T10:03:32.852Z,91193.77
2023-01-17T10:08:52.876Z,91177.05
2023-01-17T10:14:04.053Z,91162.34
2023-01-17T10:19:33.077Z,91158.47
2023-01-17T10:24:56.180Z,91183.22
2023-01-17T10:30:07.358Z,91179.45
2023-01-17T10:35:27.016Z,91197.18
2023-01-17T10:40:42.686Z,91178.86
2023-01-17T10:45:58.686Z,91172.25
2023-01-17T10:51:24.652Z,91172.92
2023-01-17T10:56:32.800Z,91182.23
2023-01-17T11:01:41.958Z,91179.50
2023-01-17T11:06:58.152Z,91157.31
2023-01-17T11:11:57.632Z,91158.38
2023-01-17T11:17:07.087Z,91133.01
2023-01-17T11:22:16.993Z,91117.84
2023-01-17T11:27:35.984Z,91100.81
2023-01-17T11:33:06.655Z,91102.95
2023-01-17T11:38:24.382Z,91078.22
2023-01-17T11:43:32.370Z,91056.05
2023-01-17T11:48:41.031Z,91053.97
2023-01-17T11:53:49.382Z,91055.92
2023-01-17T11:59:09.370Z,91060.67
2023-01-17T12:04:44.555Z,91060.07
2023-01-17T12:10:04.502Z,91062.55
2023-01-17T12:15:51.482Z,91052.37
2023-01-17T12:21:20.981Z,91040.88
2023-01-17T12:26:41.310Z,91054.06
2023-01-17T12:32:19.968Z,91059.20
2023-01-17T12:37:39.382Z,91059.97
2023-01-17T12:42:53.399Z,91045.02
2023-01-17T12:48:04.807Z,91030.28
2023-01-17T12:53:48.300Z,91021.09
2023-01-17T12:58:59.980Z,91024.87
2023-01-17T13:04:19.719Z,91029.41
2023-01-17T13:09:28.533Z,91020.70
2023-01-17T13:14:36.328Z,91000.16
2023-01-17T13:20:23.340Z,90982.22
2023-01-17T13:25:40.257Z,90984.94
2023-01-17T13:31:06.151Z,90967.53
2023-01-17T13:36:44.543Z,90951.88
2023-01-17T13:42:21.001Z,90939.34
2023-01-17T13:47:36.659Z,90922.41
2023-01-17T13:52:43.419Z,90910.82
2023-01-17T13:57:51.852Z,90903.91
2023-01-17T14:02:58.805Z,90896.19
2023-01-17T14:08:10.049Z,90883.02
2023-01-17T14:13:40.697Z,90876.86
2023-01-17T14:18:48.445Z,90851.09
2023-01-17T14:24:04.703Z,90839.34
2023-01-17T14:30:00.297Z,90819.00
2023-01-17T14:35:10.504Z,90814.82
2023-01-17T14:40:30.886Z,90812.62
2023-01-17T14:45:38.930Z,90814.75
2023-01-17T14:50:48.391Z,90807.92
2023-01-17T14:56:04.442Z,90814.28
2023-01-17T15:01:17.847Z,90804.25
2023-01-17T15:06:39.058Z,90806.86
2023-01-17T15:11:48.224Z,90807.14
2023-01-17T15:16:55.874Z,90806.61
2023-01-17T15:22:02.624Z,90811.97
2023-01-17T15:27:09.645Z,90794.88
2023-01-17T15:32:23.418Z,90820.58
2023-01-17T15:37:37.318Z,90805.15
2023-01-17T15:42:48.409Z,90806.70
2023-01-17T15:47:55.476Z,90821.23
2023-01-17T15:53:09.666Z,90805.89
2023-01-17T15:58:29.610Z,90802.55
2023-01-17T16:03:37.606Z,90798.55
2023-01-17T16:08:49.067Z,90806.88
2023-01-17T16:13:56.219Z,90818.72
2023-01-17T16:19:04.254Z,90823.13
2023-01-17T16:24:13.042Z,90815.67
2023-01-17T16:29:19.865Z,90815.19
2023-01-17T16:34:26.954Z,90819.42
2023-01-17T16:39:34.055Z,90824.22
2023-01-17T16:44:41.295Z,90835.20
2023-01-17T16:49:48.109Z,90834.55
2023-01-17T16:54:56.562Z,90821.33
2023-01-17T17:00:03.786Z,90790.69
2023-01-17T17:05:12.014Z,90778.20
2023-01-17T17:10:22.172Z,90781.44
2023-01-17T17:15:28.803Z,90759.35
2023-01-17T17:20:35.730Z,90774.48
2023-01-17T17:25:42.631Z,90754.72
2023-01-17T17:30:49.332Z,90760.69
2023-01-17T17:35:56.118Z,90760.23
2023-01-17T17:41:10.205Z,90766.23
2023-01-17T17:46:17.249Z,90771.30
2023-01-17T17:51:27.799Z,90760.93
2023-01-17T17:56:35.804Z,90755.83
2023-01-17T18:01:43.200Z,90760.92
2023-01-17T18:06:49.998Z,90755.50
2023-01-17T18:11:56.659Z,90759.02
2023-01-17T18:17:05.259Z,90768.52
2023-01-17T18:22:12.210Z,90763.25
2023-01-17T18:27:18.853Z,90774.80
2023-01-17T18:32:25.549Z,90763.40
2023-01-17T18:37:33.490Z,90741.37
2023-01-17T18:42:40.231Z,90744.20
2023-01-17T18:47:46.999Z,90744.28
2023-01-17T18:52:54.139Z,90745.47
2023-01-17T18:58:00.918Z,90736.09
2023-01-17T19:03:07.777Z,90719.63
2023-01-17T19:08:17.185Z,90732.09
2023-01-17T19:13:23.895Z,90723.89
2023-01-17T19:18:30.879Z,90712.80
2023-01-17T19:23:39.034Z,90708.23
2023-01-17T19:28:48.490Z,90711.34
2023-01-17T19:33:58.176Z,90721.55
2023-01-17T19:39:09.797Z,90718.14
2023-01-17T19:44:17.240Z,90709.70
2023-01-17T19:49:25.144Z,90696.83
2023-01-17T19:54:33.294Z,90710.15
2023-01-17T19:59:40.428Z,90707.21
2023-01-17T20:04:48.078Z,90700.97
2023-01-17T20:09:55.163Z,90704.45
2023-01-17T20:15:01.844Z,90690.80
2023-01-17T20:20:11.064Z,90689.03
2023-01-17T20:25:17.756Z,90689.97
2023-01-17T20:30:26.348Z,90676.97
2023-01-17T20:35:34.867Z,90681.41
2023-01-17T20:40:41.678Z,90673.12
2023-01-17T20:45:56.743Z,90680.55
2023-01-17T20:51:12.153Z,90671.31
2023-01-17T20:56:19.299Z,90662.95
2023-01-17T21:01:26.196Z,90656.37
2023-01-17T21:06:33.786Z,90649.68
2023-01-17T21:11:41.193Z,90639.00
2023-01-17T21:16:48.109Z,90636.98
2023-01-17T21:21:56.574Z,90639.99
2023-01-17T21:27:03.305Z,90637.23
2023-01-17T21:32:10.100Z,90643.27
2023-01-17T21:37:16.849Z,90660.00
2023-01-17T21:42:23.667Z,90647.73
2023-01-17T21:47:31.231Z,90648.92
2023-01-17T21:52:38.017Z,90486.13
2023-01-17T21:58:02.256Z,90647.25
2023-01-17T22:03:08.775Z,90648.76
2023-01-17T22:08:15.681Z,90644.55
2023-01-17T22:13:22.554Z,90632.72
2023-01-17T22:18:29.805Z,90618.45
2023-01-17T22:23:38.111Z,90622.38
2023-01-17T22:28:46.015Z,90621.99
2023-01-17T22:34:02.569Z,90624.50
2023-01-17T22:39:10.656Z,90626.54
2023-01-17T22:44:17.342Z,90632.91
2023-01-17T22:49:24.817Z,90636.41
2023-01-17T22:54:31.908Z,90639.61
2023-01-17T22:59:39.098Z,90627.67
2023-01-17T23:04:47.253Z,90622.36
2023-01-17T23:09:54.282Z,90619.77
2023-01-17T23:15:18.410Z,90616.72
2023-01-17T23:20:25.311Z,90608.02
2023-01-17T23:25:32.036Z,90594.70
2023-01-17T23:30:42.203Z,90592.93
2023-01-17T23:35:49.320Z,90604.75
2023-01-17T23:41:18.853Z,90608.31
2023-01-17T23:46:27.435Z,90612.04
2023-01-17T23:51:34.497Z,90607.92
2023-01-17T23:56:41.738Z,90590.38
